sensor_id;sensor_type;location;lat;lon;timestamp;P1;durP1;ratioP1;P2;durP2;ratioP2
22026;SDS011;11177;50.966;10.070;2022-07-17T00:02:23;3.17;;;1.17;;
22026;SDS011;11177;50.966;10.070;2022-07-17T00:04:50;2.60;;;1.00;;
22026;SDS011;11177;50.966;10.070;2022-07-17T00:07:16;4.32;;;1.38;;
22026;SDS011;11177;50.966;10.070;2022-07-17T00:09:43;4.63;;;1.30;;
22026;SDS011;11177;50.966;10.070;2022-07-17T00:12:10;4.25;;;1.80;;
22026;SDS011;11177;50.966;10.070;2022-07-17T00:14:37;3.35;;;1.30;;
22026;SDS011;11177;50.966;10.070;2022-07-17T00:17:04;4.05;;;1.58;;
22026;SDS011;11177;50.966;10.070;2022-07-17T00:19:32;2.75;;;1.70;;
22026;SDS011;11177;50.966;10.070;2022-07-17T00:21:59;7.35;;;1.65;;
22026;SDS011;11177;50.966;10.070;2022-07-17T00:24:25;2.00;;;1.40;;
22026;SDS011;11177;50.966;10.070;2022-07-17T00:26:52;4.78;;;1.60;;
22026;SDS011;11177;50.966;10.070;2022-07-17T00:29:19;4.55;;;1.60;;
22026;SDS011;11177;50.966;10.070;2022-07-17T00:31:46;3.50;;;1.48;;
22026;SDS011;11177;50.966;10.070;2022-07-17T00:34:14;3.97;;;1.60;;
22026;SDS011;11177;50.966;10.070;2022-07-17T00:36:41;1.92;;;1.42;;
22026;SDS011;11177;50.966;10.070;2022-07-17T00:39:08;3.08;;;1.40;;
22026;SDS011;11177;50.966;10.070;2022-07-17T00:41:35;3.03;;;1.60;;
22026;SDS011;11177;50.966;10.070;2022-07-17T00:44:02;5.50;;;1.95;;
22026;SDS011;11177;50.966;10.070;2022-07-17T00:46:33;2.35;;;1.80;;
22026;SDS011;11177;50.966;10.070;2022-07-17T00:49:00;4.35;;;1.70;;
22026;SDS011;11177;50.966;10.070;2022-07-17T00:51:27;2.42;;;1.50;;
22026;SDS011;11177;50.966;10.070;2022-07-17T00:53:55;4.80;;;1.88;;
22026;SDS011;11177;50.966;10.070;2022-07-17T00:56:30;4.18;;;1.77;;
22026;SDS011;11177;50.966;10.070;2022-07-17T00:58:58;4.43;;;1.83;;
22026;SDS011;11177;50.966;10.070;2022-07-17T01:04:06;3.15;;;1.30;;
22026;SDS011;11177;50.966;10.070;2022-07-17T01:06:32;4.28;;;1.80;;
22026;SDS011;11177;50.966;10.070;2022-07-17T01:08:59;5.03;;;1.33;;
22026;SDS011;11177;50.966;10.070;2022-07-17T01:11:26;2.92;;;1.55;;
22026;SDS011;11177;50.966;10.070;2022-07-17T01:13:53;2.78;;;1.30;;
22026;SDS011;11177;50.966;10.070;2022-07-17T01:16:20;3.45;;;1.45;;
22026;SDS011;11177;50.966;10.070;2022-07-17T01:18:48;2.33;;;1.50;;
22026;SDS011;11177;50.966;10.070;2022-07-17T01:21:14;3.90;;;1.40;;
22026;SDS011;11177;50.966;10.070;2022-07-17T01:23:41;3.42;;;1.50;;
22026;SDS011;11177;50.966;10.070;2022-07-17T01:26:08;4.00;;;1.55;;
22026;SDS011;11177;50.966;10.070;2022-07-17T01:28:34;4.68;;;1.58;;
22026;SDS011;11177;50.966;10.070;2022-07-17T01:31:01;2.78;;;1.40;;
22026;SDS011;11177;50.966;10.070;2022-07-17T01:33:29;3.33;;;1.27;;
22026;SDS011;11177;50.966;10.070;2022-07-17T01:35:56;3.35;;;1.40;;
22026;SDS011;11177;50.966;10.070;2022-07-17T01:38:23;3.97;;;1.48;;
22026;SDS011;11177;50.966;10.070;2022-07-17T01:40:50;1.70;;;1.25;;
22026;SDS011;11177;50.966;10.070;2022-07-17T01:43:18;4.45;;;1.50;;
22026;SDS011;11177;50.966;10.070;2022-07-17T01:45:45;5.20;;;1.70;;
22026;SDS011;11177;50.966;10.070;2022-07-17T01:48:21;4.63;;;1.50;;
22026;SDS011;11177;50.966;10.070;2022-07-17T01:50:49;3.45;;;1.52;;
22026;SDS011;11177;50.966;10.070;2022-07-17T01:53:16;4.00;;;1.45;;
22026;SDS011;11177;50.966;10.070;2022-07-17T01:55:43;8.27;;;1.50;;
22026;SDS011;11177;50.966;10.070;2022-07-17T01:58:09;1.63;;;1.40;;
22026;SDS011;11177;50.966;10.070;2022-07-17T02:00:36;4.85;;;1.50;;
22026;SDS011;11177;50.966;10.070;2022-07-17T02:03:03;2.80;;;1.40;;
22026;SDS011;11177;50.966;10.070;2022-07-17T02:05:29;4.13;;;1.30;;
22026;SDS011;11177;50.966;10.070;2022-07-17T02:07:56;3.20;;;1.67;;
22026;SDS011;11177;50.966;10.070;2022-07-17T02:10:23;3.38;;;1.48;;
22026;SDS011;11177;50.966;10.070;2022-07-17T02:12:50;3.60;;;1.30;;
22026;SDS011;11177;50.966;10.070;2022-07-17T02:15:17;3.20;;;1.48;;
22026;SDS011;11177;50.966;10.070;2022-07-17T02:17:43;2.42;;;1.42;;
22026;SDS011;11177;50.966;10.070;2022-07-17T02:20:11;3.50;;;1.58;;
22026;SDS011;11177;50.966;10.070;2022-07-17T02:22:39;3.47;;;1.60;;
22026;SDS011;11177;50.966;10.070;2022-07-17T02:25:06;4.68;;;1.67;;
22026;SDS011;11177;50.966;10.070;2022-07-17T02:27:34;2.63;;;1.45;;
22026;SDS011;11177;50.966;10.070;2022-07-17T02:30:05;2.28;;;1.73;;
22026;SDS011;11177;50.966;10.070;2022-07-17T02:32:43;3.17;;;1.65;;
22026;SDS011;11177;50.966;10.070;2022-07-17T02:35:10;2.60;;;1.30;;
22026;SDS011;11177;50.966;10.070;2022-07-17T02:37:38;7.63;;;1.70;;
22026;SDS011;11177;50.966;10.070;2022-07-17T02:40:05;2.58;;;1.65;;
22026;SDS011;11177;50.966;10.070;2022-07-17T02:42:32;2.58;;;1.45;;
22026;SDS011;11177;50.966;10.070;2022-07-17T02:44:59;3.60;;;1.52;;
22026;SDS011;11177;50.966;10.070;2022-07-17T02:49:53;5.00;;;1.70;;
22026;SDS011;11177;50.966;10.070;2022-07-17T02:52:20;3.45;;;1.48;;
22026;SDS011;11177;50.966;10.070;2022-07-17T02:54:47;4.75;;;1.30;;
22026;SDS011;11177;50.966;10.070;2022-07-17T02:57:14;2.40;;;1.20;;
22026;SDS011;11177;50.966;10.070;2022-07-17T02:59:41;3.88;;;1.40;;
22026;SDS011;11177;50.966;10.070;2022-07-17T03:02:08;1.85;;;1.20;;
22026;SDS011;11177;50.966;10.070;2022-07-17T03:04:36;3.95;;;1.50;;
22026;SDS011;11177;50.966;10.070;2022-07-17T03:07:02;3.50;;;1.27;;
22026;SDS011;11177;50.966;10.070;2022-07-17T03:09:29;3.50;;;1.55;;
22026;SDS011;11177;50.966;10.070;2022-07-17T03:11:56;3.80;;;1.33;;
22026;SDS011;11177;50.966;10.070;2022-07-17T03:14:22;3.58;;;1.42;;
22026;SDS011;11177;50.966;10.070;2022-07-17T03:16:49;3.28;;;1.25;;
22026;SDS011;11177;50.966;10.070;2022-07-17T03:19:16;7.05;;;1.63;;
22026;SDS011;11177;50.966;10.070;2022-07-17T03:21:43;4.80;;;1.45;;
22026;SDS011;11177;50.966;10.070;2022-07-17T03:24:10;4.03;;;1.70;;
22026;SDS011;11177;50.966;10.070;2022-07-17T03:26:37;2.65;;;1.55;;
22026;SDS011;11177;50.966;10.070;2022-07-17T03:29:03;3.22;;;1.30;;
22026;SDS011;11177;50.966;10.070;2022-07-17T03:31:30;1.48;;;1.30;;
22026;SDS011;11177;50.966;10.070;2022-07-17T03:33:58;4.05;;;1.30;;
22026;SDS011;11177;50.966;10.070;2022-07-17T03:36:24;3.63;;;1.42;;
22026;SDS011;11177;50.966;10.070;2022-07-17T03:38:51;4.80;;;1.40;;
22026;SDS011;11177;50.966;10.070;2022-07-17T03:41:18;3.25;;;1.75;;
22026;SDS011;11177;50.966;10.070;2022-07-17T03:43:45;3.38;;;1.33;;
22026;SDS011;11177;50.966;10.070;2022-07-17T03:46:12;4.38;;;1.60;;
22026;SDS011;11177;50.966;10.070;2022-07-17T03:48:39;3.58;;;1.90;;
22026;SDS011;11177;50.966;10.070;2022-07-17T03:51:06;3.63;;;1.48;;
22026;SDS011;11177;50.966;10.070;2022-07-17T03:53:32;3.10;;;1.20;;
22026;SDS011;11177;50.966;10.070;2022-07-17T03:55:59;1.73;;;1.33;;
22026;SDS011;11177;50.966;10.070;2022-07-17T03:58:25;3.13;;;1.33;;
22026;SDS011;11177;50.966;10.070;2022-07-17T04:00:52;3.45;;;1.50;;
22026;SDS011;11177;50.966;10.070;2022-07-17T04:03:19;2.65;;;1.30;;
22026;SDS011;11177;50.966;10.070;2022-07-17T04:05:46;2.78;;;1.27;;
22026;SDS011;11177;50.966;10.070;2022-07-17T04:08:12;7.80;;;1.55;;
22026;SDS011;11177;50.966;10.070;2022-07-17T04:10:39;4.38;;;1.58;;
22026;SDS011;11177;50.966;10.070;2022-07-17T04:13:06;4.15;;;1.70;;
22026;SDS011;11177;50.966;10.070;2022-07-17T04:15:32;3.15;;;1.38;;
22026;SDS011;11177;50.966;10.070;2022-07-17T04:18:19;6.28;;;1.40;;
22026;SDS011;11177;50.966;10.070;2022-07-17T04:20:47;3.58;;;1.45;;
22026;SDS011;11177;50.966;10.070;2022-07-17T04:23:14;3.97;;;1.58;;
22026;SDS011;11177;50.966;10.070;2022-07-17T04:25:43;4.22;;;1.50;;
22026;SDS011;11177;50.966;10.070;2022-07-17T04:28:10;3.53;;;1.33;;
22026;SDS011;11177;50.966;10.070;2022-07-17T04:30:38;2.92;;;1.20;;
22026;SDS011;11177;50.966;10.070;2022-07-17T04:33:05;1.80;;;1.40;;
22026;SDS011;11177;50.966;10.070;2022-07-17T04:35:31;1.38;;;1.20;;
22026;SDS011;11177;50.966;10.070;2022-07-17T04:37:58;3.65;;;1.33;;
22026;SDS011;11177;50.966;10.070;2022-07-17T04:40:32;5.43;;;1.63;;
22026;SDS011;11177;50.966;10.070;2022-07-17T04:43:00;3.00;;;1.30;;
22026;SDS011;11177;50.966;10.070;2022-07-17T04:45:26;2.33;;;1.27;;
22026;SDS011;11177;50.966;10.070;2022-07-17T04:47:53;2.75;;;1.40;;
22026;SDS011;11177;50.966;10.070;2022-07-17T04:50:20;3.45;;;1.27;;
22026;SDS011;11177;50.966;10.070;2022-07-17T04:52:47;3.72;;;1.60;;
22026;SDS011;11177;50.966;10.070;2022-07-17T04:55:13;1.83;;;1.20;;
22026;SDS011;11177;50.966;10.070;2022-07-17T04:57:40;3.25;;;1.55;;
22026;SDS011;11177;50.966;10.070;2022-07-17T05:00:08;3.88;;;1.40;;
22026;SDS011;11177;50.966;10.070;2022-07-17T05:02:35;2.42;;;1.15;;
22026;SDS011;11177;50.966;10.070;2022-07-17T05:05:02;4.32;;;1.50;;
22026;SDS011;11177;50.966;10.070;2022-07-17T05:07:30;3.10;;;1.42;;
22026;SDS011;11177;50.966;10.070;2022-07-17T05:09:57;3.42;;;1.40;;
22026;SDS011;11177;50.966;10.070;2022-07-17T05:12:23;3.15;;;1.50;;
22026;SDS011;11177;50.966;10.070;2022-07-17T05:14:50;2.72;;;1.70;;
22026;SDS011;11177;50.966;10.070;2022-07-17T05:17:17;2.13;;;1.50;;
22026;SDS011;11177;50.966;10.070;2022-07-17T05:19:43;3.92;;;1.58;;
22026;SDS011;11177;50.966;10.070;2022-07-17T05:22:10;2.17;;;1.38;;
22026;SDS011;11177;50.966;10.070;2022-07-17T05:24:36;3.20;;;1.50;;
22026;SDS011;11177;50.966;10.070;2022-07-17T05:27:04;3.88;;;1.73;;
22026;SDS011;11177;50.966;10.070;2022-07-17T05:29:30;3.08;;;1.70;;
22026;SDS011;11177;50.966;10.070;2022-07-17T05:31:57;4.03;;;1.60;;
22026;SDS011;11177;50.966;10.070;2022-07-17T05:34:24;2.15;;;1.33;;
22026;SDS011;11177;50.966;10.070;2022-07-17T05:36:50;2.65;;;1.50;;
22026;SDS011;11177;50.966;10.070;2022-07-17T05:39:17;3.90;;;1.58;;
22026;SDS011;11177;50.966;10.070;2022-07-17T05:41:44;2.00;;;1.63;;
22026;SDS011;11177;50.966;10.070;2022-07-17T05:44:11;2.38;;;1.60;;
22026;SDS011;11177;50.966;10.070;2022-07-17T05:46:37;3.65;;;1.65;;
22026;SDS011;11177;50.966;10.070;2022-07-17T05:49:04;5.38;;;1.63;;
22026;SDS011;11177;50.966;10.070;2022-07-17T05:51:31;3.45;;;1.50;;
22026;SDS011;11177;50.966;10.070;2022-07-17T05:54:01;3.80;;;1.50;;
22026;SDS011;11177;50.966;10.070;2022-07-17T05:56:28;2.58;;;1.40;;
22026;SDS011;11177;50.966;10.070;2022-07-17T05:58:54;4.60;;;1.80;;
22026;SDS011;11177;50.966;10.070;2022-07-17T06:01:21;4.10;;;1.95;;
22026;SDS011;11177;50.966;10.070;2022-07-17T06:03:48;3.10;;;1.90;;
22026;SDS011;11177;50.966;10.070;2022-07-17T06:06:15;2.45;;;2.00;;
22026;SDS011;11177;50.966;10.070;2022-07-17T06:08:41;3.30;;;1.98;;
22026;SDS011;11177;50.966;10.070;2022-07-17T06:11:09;4.15;;;2.20;;
22026;SDS011;11177;50.966;10.070;2022-07-17T06:13:36;3.30;;;1.77;;
22026;SDS011;11177;50.966;10.070;2022-07-17T06:16:02;2.83;;;1.60;;
22026;SDS011;11177;50.966;10.070;2022-07-17T06:18:29;2.50;;;1.27;;
22026;SDS011;11177;50.966;10.070;2022-07-17T06:20:57;2.83;;;1.80;;
22026;SDS011;11177;50.966;10.070;2022-07-17T06:23:24;3.47;;;1.75;;
22026;SDS011;11177;50.966;10.070;2022-07-17T06:25:51;4.63;;;1.70;;
22026;SDS011;11177;50.966;10.070;2022-07-17T06:28:17;3.20;;;1.77;;
22026;SDS011;11177;50.966;10.070;2022-07-17T06:30:44;3.85;;;2.00;;
22026;SDS011;11177;50.966;10.070;2022-07-17T06:33:11;7.40;;;1.80;;
22026;SDS011;11177;50.966;10.070;2022-07-17T06:35:37;3.28;;;1.70;;
22026;SDS011;11177;50.966;10.070;2022-07-17T06:38:10;4.05;;;1.55;;
22026;SDS011;11177;50.966;10.070;2022-07-17T06:40:37;2.90;;;1.50;;
22026;SDS011;11177;50.966;10.070;2022-07-17T06:43:04;4.10;;;1.58;;
22026;SDS011;11177;50.966;10.070;2022-07-17T06:45:32;4.68;;;1.83;;
22026;SDS011;11177;50.966;10.070;2022-07-17T06:47:59;3.53;;;1.58;;
22026;SDS011;11177;50.966;10.070;2022-07-17T06:50:26;7.68;;;1.63;;
22026;SDS011;11177;50.966;10.070;2022-07-17T06:52:53;3.50;;;1.40;;
22026;SDS011;11177;50.966;10.070;2022-07-17T06:55:20;2.25;;;1.48;;
22026;SDS011;11177;50.966;10.070;2022-07-17T06:57:47;5.35;;;1.55;;
22026;SDS011;11177;50.966;10.070;2022-07-17T07:00:14;3.60;;;1.20;;
22026;SDS011;11177;50.966;10.070;2022-07-17T07:02:41;4.07;;;1.55;;
22026;SDS011;11177;50.966;10.070;2022-07-17T07:05:08;4.88;;;1.27;;
22026;SDS011;11177;50.966;10.070;2022-07-17T07:07:35;6.03;;;1.48;;
22026;SDS011;11177;50.966;10.070;2022-07-17T07:10:03;6.30;;;1.30;;
22026;SDS011;11177;50.966;10.070;2022-07-17T07:12:30;3.83;;;1.38;;
22026;SDS011;11177;50.966;10.070;2022-07-17T07:14:57;1.20;;;1.10;;
22026;SDS011;11177;50.966;10.070;2022-07-17T07:17:23;2.55;;;1.10;;
22026;SDS011;11177;50.966;10.070;2022-07-17T07:19:50;4.63;;;1.10;;
22026;SDS011;11177;50.966;10.070;2022-07-17T07:22:17;3.38;;;1.17;;
22026;SDS011;11177;50.966;10.070;2022-07-17T07:24:45;2.05;;;1.00;;
22026;SDS011;11177;50.966;10.070;2022-07-17T07:27:12;2.95;;;1.42;;
22026;SDS011;11177;50.966;10.070;2022-07-17T07:29:39;4.38;;;1.40;;
22026;SDS011;11177;50.966;10.070;2022-07-17T07:32:05;5.30;;;1.40;;
22026;SDS011;11177;50.966;10.070;2022-07-17T07:34:33;3.08;;;1.20;;
22026;SDS011;11177;50.966;10.070;2022-07-17T07:36:59;3.05;;;1.20;;
22026;SDS011;11177;50.966;10.070;2022-07-17T07:39:26;3.00;;;1.20;;
22026;SDS011;11177;50.966;10.070;2022-07-17T07:41:53;3.90;;;1.35;;
22026;SDS011;11177;50.966;10.070;2022-07-17T07:44:19;4.60;;;1.40;;
22026;SDS011;11177;50.966;10.070;2022-07-17T07:46:56;3.30;;;1.00;;
22026;SDS011;11177;50.966;10.070;2022-07-17T07:49:23;4.60;;;1.20;;
22026;SDS011;11177;50.966;10.070;2022-07-17T07:51:49;3.10;;;1.30;;
22026;SDS011;11177;50.966;10.070;2022-07-17T07:54:28;3.38;;;1.15;;
22026;SDS011;11177;50.966;10.070;2022-07-17T07:56:55;4.70;;;1.27;;
22026;SDS011;11177;50.966;10.070;2022-07-17T07:59:22;2.63;;;0.90;;
22026;SDS011;11177;50.966;10.070;2022-07-17T08:01:49;3.95;;;1.15;;
22026;SDS011;11177;50.966;10.070;2022-07-17T08:04:16;3.05;;;1.10;;
22026;SDS011;11177;50.966;10.070;2022-07-17T08:06:43;2.75;;;1.25;;
22026;SDS011;11177;50.966;10.070;2022-07-17T08:09:10;2.88;;;1.10;;
22026;SDS011;11177;50.966;10.070;2022-07-17T08:11:37;4.10;;;0.95;;
22026;SDS011;11177;50.966;10.070;2022-07-17T08:14:04;2.45;;;1.02;;
22026;SDS011;11177;50.966;10.070;2022-07-17T08:16:41;3.42;;;0.90;;
22026;SDS011;11177;50.966;10.070;2022-07-17T08:19:08;4.72;;;1.15;;
22026;SDS011;11177;50.966;10.070;2022-07-17T08:21:35;8.27;;;1.10;;
22026;SDS011;11177;50.966;10.070;2022-07-17T08:24:02;2.72;;;0.75;;
22026;SDS011;11177;50.966;10.070;2022-07-17T08:26:30;2.45;;;0.80;;
22026;SDS011;11177;50.966;10.070;2022-07-17T08:28:56;3.80;;;0.90;;
22026;SDS011;11177;50.966;10.070;2022-07-17T08:31:23;4.03;;;0.93;;
22026;SDS011;11177;50.966;10.070;2022-07-17T08:33:51;5.40;;;1.08;;
22026;SDS011;11177;50.966;10.070;2022-07-17T08:36:18;6.00;;;0.75;;
22026;SDS011;11177;50.966;10.070;2022-07-17T08:38:45;3.08;;;0.90;;
22026;SDS011;11177;50.966;10.070;2022-07-17T08:41:14;2.78;;;0.88;;
22026;SDS011;11177;50.966;10.070;2022-07-17T08:43:43;1.85;;;0.70;;
22026;SDS011;11177;50.966;10.070;2022-07-17T08:46:11;3.88;;;1.00;;
22026;SDS011;11177;50.966;10.070;2022-07-17T08:48:39;4.47;;;1.10;;
22026;SDS011;11177;50.966;10.070;2022-07-17T08:51:08;2.88;;;1.20;;
22026;SDS011;11177;50.966;10.070;2022-07-17T08:53:36;3.53;;;1.02;;
22026;SDS011;11177;50.966;10.070;2022-07-17T08:56:03;7.18;;;0.90;;
22026;SDS011;11177;50.966;10.070;2022-07-17T08:58:30;3.90;;;0.90;;
22026;SDS011;11177;50.966;10.070;2022-07-17T09:00:58;2.35;;;0.80;;
22026;SDS011;11177;50.966;10.070;2022-07-17T09:03:25;4.03;;;1.05;;
22026;SDS011;11177;50.966;10.070;2022-07-17T09:05:53;4.28;;;0.95;;
22026;SDS011;11177;50.966;10.070;2022-07-17T09:08:21;2.90;;;1.20;;
22026;SDS011;11177;50.966;10.070;2022-07-17T09:10:50;1.77;;;1.08;;
22026;SDS011;11177;50.966;10.070;2022-07-17T09:15:55;4.05;;;1.35;;
22026;SDS011;11177;50.966;10.070;2022-07-17T09:18:24;2.85;;;1.25;;
22026;SDS011;11177;50.966;10.070;2022-07-17T09:20:57;3.30;;;0.88;;
22026;SDS011;11177;50.966;10.070;2022-07-17T09:23:26;7.90;;;1.42;;
22026;SDS011;11177;50.966;10.070;2022-07-17T09:25:54;3.15;;;0.85;;
22026;SDS011;11177;50.966;10.070;2022-07-17T09:28:22;2.30;;;0.82;;
22026;SDS011;11177;50.966;10.070;2022-07-17T09:30:50;3.67;;;1.35;;
22026;SDS011;11177;50.966;10.070;2022-07-17T09:33:19;3.35;;;0.82;;
22026;SDS011;11177;50.966;10.070;2022-07-17T09:35:48;3.55;;;1.40;;
22026;SDS011;11177;50.966;10.070;2022-07-17T09:38:36;6.15;;;0.90;;
22026;SDS011;11177;50.966;10.070;2022-07-17T09:41:14;4.85;;;0.93;;
22026;SDS011;11177;50.966;10.070;2022-07-17T09:43:43;2.15;;;0.85;;
22026;SDS011;11177;50.966;10.070;2022-07-17T09:46:16;4.32;;;0.93;;
22026;SDS011;11177;50.966;10.070;2022-07-17T09:48:45;1.55;;;0.70;;
22026;SDS011;11177;50.966;10.070;2022-07-17T09:51:27;3.08;;;0.95;;
22026;SDS011;11177;50.966;10.070;2022-07-17T09:53:58;3.30;;;1.00;;
22026;SDS011;11177;50.966;10.070;2022-07-17T09:56:26;2.90;;;0.90;;
22026;SDS011;11177;50.966;10.070;2022-07-17T09:59:03;1.33;;;0.70;;
22026;SDS011;11177;50.966;10.070;2022-07-17T10:01:35;4.03;;;0.90;;
22026;SDS011;11177;50.966;10.070;2022-07-17T10:04:02;3.15;;;1.20;;
22026;SDS011;11177;50.966;10.070;2022-07-17T10:06:30;3.13;;;0.70;;
22026;SDS011;11177;50.966;10.070;2022-07-17T10:08:58;5.35;;;1.13;;
22026;SDS011;11177;50.966;10.070;2022-07-17T10:11:26;2.50;;;0.80;;
22026;SDS011;11177;50.966;10.070;2022-07-17T10:13:56;3.35;;;1.08;;
22026;SDS011;11177;50.966;10.070;2022-07-17T10:16:28;4.35;;;1.08;;
22026;SDS011;11177;50.966;10.070;2022-07-17T10:18:57;2.33;;;0.80;;
22026;SDS011;11177;50.966;10.070;2022-07-17T10:21:25;3.88;;;1.20;;
22026;SDS011;11177;50.966;10.070;2022-07-17T10:26:41;4.15;;;0.90;;
22026;SDS011;11177;50.966;10.070;2022-07-17T10:29:34;2.38;;;1.20;;
22026;SDS011;11177;50.966;10.070;2022-07-17T10:32:15;4.30;;;1.10;;
22026;SDS011;11177;50.966;10.070;2022-07-17T10:34:48;2.60;;;0.80;;
22026;SDS011;11177;50.966;10.070;2022-07-17T10:37:24;3.15;;;0.80;;
22026;SDS011;11177;50.966;10.070;2022-07-17T10:40:11;2.38;;;0.73;;
22026;SDS011;11177;50.966;10.070;2022-07-17T10:42:52;4.15;;;1.00;;
22026;SDS011;11177;50.966;10.070;2022-07-17T10:45:32;4.90;;;0.90;;
22026;SDS011;11177;50.966;10.070;2022-07-17T10:48:04;2.28;;;0.90;;
22026;SDS011;11177;50.966;10.070;2022-07-17T10:53:29;2.25;;;0.80;;
22026;SDS011;11177;50.966;10.070;2022-07-17T10:56:03;2.15;;;1.13;;
22026;SDS011;11177;50.966;10.070;2022-07-17T10:58:34;1.52;;;0.68;;
22026;SDS011;11177;50.966;10.070;2022-07-17T11:03:37;2.20;;;0.63;;
22026;SDS011;11177;50.966;10.070;2022-07-17T11:06:24;2.60;;;0.88;;
22026;SDS011;11177;50.966;10.070;2022-07-17T11:09:08;2.80;;;0.70;;
22026;SDS011;11177;50.966;10.070;2022-07-17T11:11:40;2.70;;;0.95;;
22026;SDS011;11177;50.966;10.070;2022-07-17T11:14:18;2.53;;;0.80;;
22026;SDS011;11177;50.966;10.070;2022-07-17T11:16:50;2.35;;;0.70;;
22026;SDS011;11177;50.966;10.070;2022-07-17T11:19:25;4.70;;;1.00;;
22026;SDS011;11177;50.966;10.070;2022-07-17T11:21:53;2.90;;;0.93;;
22026;SDS011;11177;50.966;10.070;2022-07-17T11:24:21;4.82;;;1.00;;
22026;SDS011;11177;50.966;10.070;2022-07-17T11:26:50;2.25;;;0.50;;
22026;SDS011;11177;50.966;10.070;2022-07-17T11:29:17;2.97;;;0.65;;
22026;SDS011;11177;50.966;10.070;2022-07-17T11:31:44;1.55;;;0.65;;
22026;SDS011;11177;50.966;10.070;2022-07-17T11:34:11;2.47;;;0.70;;
22026;SDS011;11177;50.966;10.070;2022-07-17T11:36:39;3.20;;;1.05;;
22026;SDS011;11177;50.966;10.070;2022-07-17T11:39:10;3.25;;;0.70;;
22026;SDS011;11177;50.966;10.070;2022-07-17T11:41:45;1.40;;;0.68;;
22026;SDS011;11177;50.966;10.070;2022-07-17T11:44:14;2.15;;;0.73;;
22026;SDS011;11177;50.966;10.070;2022-07-17T11:46:43;1.98;;;0.80;;
22026;SDS011;11177;50.966;10.070;2022-07-17T11:49:33;3.78;;;0.70;;
22026;SDS011;11177;50.966;10.070;2022-07-17T11:52:08;2.55;;;1.05;;
22026;SDS011;11177;50.966;10.070;2022-07-17T11:57:12;1.20;;;0.65;;
22026;SDS011;11177;50.966;10.070;2022-07-17T11:59:40;2.83;;;0.98;;
22026;SDS011;11177;50.966;10.070;2022-07-17T12:04:51;1.77;;;0.60;;
22026;SDS011;11177;50.966;10.070;2022-07-17T12:07:20;2.00;;;0.60;;
22026;SDS011;11177;50.966;10.070;2022-07-17T12:09:49;2.42;;;0.80;;
22026;SDS011;11177;50.966;10.070;2022-07-17T12:12:26;1.73;;;0.50;;
22026;SDS011;11177;50.966;10.070;2022-07-17T12:14:57;2.28;;;0.70;;
22026;SDS011;11177;50.966;10.070;2022-07-17T12:17:26;1.70;;;0.70;;
22026;SDS011;11177;50.966;10.070;2022-07-17T12:20:04;2.72;;;0.80;;
22026;SDS011;11177;50.966;10.070;2022-07-17T12:22:42;2.28;;;0.82;;
22026;SDS011;11177;50.966;10.070;2022-07-17T12:25:10;2.65;;;0.70;;
22026;SDS011;11177;50.966;10.070;2022-07-17T12:27:48;2.13;;;0.65;;
22026;SDS011;11177;50.966;10.070;2022-07-17T12:30:15;1.70;;;0.70;;
22026;SDS011;11177;50.966;10.070;2022-07-17T12:32:41;2.58;;;0.60;;
22026;SDS011;11177;50.966;10.070;2022-07-17T12:35:08;1.75;;;0.63;;
22026;SDS011;11177;50.966;10.070;2022-07-17T12:37:35;1.67;;;0.70;;
22026;SDS011;11177;50.966;10.070;2022-07-17T12:40:02;3.28;;;0.75;;
22026;SDS011;11177;50.966;10.070;2022-07-17T12:42:30;3.33;;;0.88;;
22026;SDS011;11177;50.966;10.070;2022-07-17T12:44:57;3.92;;;0.77;;
22026;SDS011;11177;50.966;10.070;2022-07-17T12:47:24;1.13;;;0.60;;
22026;SDS011;11177;50.966;10.070;2022-07-17T12:49:50;2.10;;;0.70;;
22026;SDS011;11177;50.966;10.070;2022-07-17T12:52:17;2.22;;;0.70;;
22026;SDS011;11177;50.966;10.070;2022-07-17T12:54:44;2.55;;;0.70;;
22026;SDS011;11177;50.966;10.070;2022-07-17T12:57:11;1.00;;;0.68;;
22026;SDS011;11177;50.966;10.070;2022-07-17T12:59:38;2.58;;;0.90;;
22026;SDS011;11177;50.966;10.070;2022-07-17T13:02:05;1.92;;;0.82;;
22026;SDS011;11177;50.966;10.070;2022-07-17T13:04:32;4.65;;;1.00;;
22026;SDS011;11177;50.966;10.070;2022-07-17T13:06:59;5.53;;;1.17;;
22026;SDS011;11177;50.966;10.070;2022-07-17T13:09:26;2.30;;;0.75;;
22026;SDS011;11177;50.966;10.070;2022-07-17T13:11:52;2.13;;;0.63;;
22026;SDS011;11177;50.966;10.070;2022-07-17T13:14:19;3.03;;;0.90;;
22026;SDS011;11177;50.966;10.070;2022-07-17T13:16:46;1.10;;;0.52;;
22026;SDS011;11177;50.966;10.070;2022-07-17T13:19:13;3.67;;;0.75;;
22026;SDS011;11177;50.966;10.070;2022-07-17T13:21:39;1.33;;;0.70;;
22026;SDS011;11177;50.966;10.070;2022-07-17T13:24:06;4.85;;;0.70;;
22026;SDS011;11177;50.966;10.070;2022-07-17T13:26:33;2.20;;;0.60;;
22026;SDS011;11177;50.966;10.070;2022-07-17T13:29:00;2.53;;;0.90;;
22026;SDS011;11177;50.966;10.070;2022-07-17T13:31:27;1.77;;;0.60;;
22026;SDS011;11177;50.966;10.070;2022-07-17T13:33:54;1.77;;;0.70;;
22026;SDS011;11177;50.966;10.070;2022-07-17T13:36:20;1.85;;;0.70;;
22026;SDS011;11177;50.966;10.070;2022-07-17T13:38:47;1.85;;;0.75;;
22026;SDS011;11177;50.966;10.070;2022-07-17T13:41:14;2.35;;;0.57;;
22026;SDS011;11177;50.966;10.070;2022-07-17T13:43:42;1.52;;;0.60;;
22026;SDS011;11177;50.966;10.070;2022-07-17T13:46:08;3.85;;;0.82;;
22026;SDS011;11177;50.966;10.070;2022-07-17T13:48:35;3.25;;;1.08;;
22026;SDS011;11177;50.966;10.070;2022-07-17T13:51:01;2.25;;;0.90;;
22026;SDS011;11177;50.966;10.070;2022-07-17T13:53:28;5.63;;;0.77;;
22026;SDS011;11177;50.966;10.070;2022-07-17T13:55:56;2.45;;;0.82;;
22026;SDS011;11177;50.966;10.070;2022-07-17T13:58:23;1.33;;;0.70;;
22026;SDS011;11177;50.966;10.070;2022-07-17T14:00:49;1.90;;;0.68;;
22026;SDS011;11177;50.966;10.070;2022-07-17T14:03:17;2.08;;;0.63;;
22026;SDS011;11177;50.966;10.070;2022-07-17T14:05:43;1.48;;;0.57;;
22026;SDS011;11177;50.966;10.070;2022-07-17T14:08:10;0.93;;;0.50;;
22026;SDS011;11177;50.966;10.070;2022-07-17T14:10:37;2.67;;;0.70;;
22026;SDS011;11177;50.966;10.070;2022-07-17T14:13:04;1.60;;;0.60;;
22026;SDS011;11177;50.966;10.070;2022-07-17T14:15:31;1.42;;;0.60;;
22026;SDS011;11177;50.966;10.070;2022-07-17T14:17:57;2.13;;;0.93;;
22026;SDS011;11177;50.966;10.070;2022-07-17T14:20:24;1.23;;;0.70;;
22026;SDS011;11177;50.966;10.070;2022-07-17T14:22:51;1.63;;;0.77;;
22026;SDS011;11177;50.966;10.070;2022-07-17T14:25:18;1.33;;;0.60;;
22026;SDS011;11177;50.966;10.070;2022-07-17T14:27:45;3.53;;;0.65;;
22026;SDS011;11177;50.966;10.070;2022-07-17T14:30:12;1.02;;;0.63;;
22026;SDS011;11177;50.966;10.070;2022-07-17T14:32:39;2.08;;;0.73;;
22026;SDS011;11177;50.966;10.070;2022-07-17T14:35:07;4.20;;;0.70;;
22026;SDS011;11177;50.966;10.070;2022-07-17T14:37:35;2.00;;;0.77;;
22026;SDS011;11177;50.966;10.070;2022-07-17T14:40:09;2.97;;;0.93;;
22026;SDS011;11177;50.966;10.070;2022-07-17T14:42:36;2.08;;;0.80;;
22026;SDS011;11177;50.966;10.070;2022-07-17T14:45:03;1.52;;;0.60;;
22026;SDS011;11177;50.966;10.070;2022-07-17T14:47:31;1.20;;;0.70;;
22026;SDS011;11177;50.966;10.070;2022-07-17T14:49:58;4.00;;;0.63;;
22026;SDS011;11177;50.966;10.070;2022-07-17T14:52:26;1.58;;;0.70;;
22026;SDS011;11177;50.966;10.070;2022-07-17T14:54:53;2.50;;;0.68;;
22026;SDS011;11177;50.966;10.070;2022-07-17T14:57:20;2.60;;;0.90;;
22026;SDS011;11177;50.966;10.070;2022-07-17T14:59:46;5.72;;;0.88;;
22026;SDS011;11177;50.966;10.070;2022-07-17T15:02:13;1.77;;;0.68;;